Time;durP1;ratioP1;P1;durP2;ratioP2;P2;SDS_P1;SDS_P2;PMS_P1;PMS_P2;Temp;Humidity;BMP_temperature;BMP_pressure;BME280_temperature;BME280_humidity;BME280_pressure;Samples;Min_cycle;Max_cycle;Signal;HPM_P1;HPM_P2
2022/04/13 00:00:30;;;;;;;;;;;;;;;18.35;50.69;101240.34;6290603;22;19918;-78
2022/04/13 00:02:56;;;;;;;;;;;;;;;18.34;50.87;101246.44;6291189;22;19983;-78
2022/04/13 00:05:21;;;;;;;;;;;;;;;18.34;50.63;101243.84;6290250;22;19939;-78
2022/04/13 00:07:46;;;;;;;;;;;;;;;18.35;50.74;101244.69;6291428;22;19907;-78
2022/04/13 00:10:12;;;;;;;;;;;;;;;18.34;50.78;101251.66;6317963;22;19915;-78
2022/04/13 00:12:37;;;;;;;;;;;;;;;18.34;50.82;101253.41;6291466;22;19914;-78
2022/04/13 00:15:03;;;;;;;;;;;;;;;18.34;50.71;101254.25;6317935;22;19977;-78
2022/04/13 00:17:29;;;;;;;;;;;;;;;18.34;51.04;101254.25;6318857;22;19968;-78
2022/04/13 00:19:55;;;;;;;;;;;;;;;18.34;50.88;101254.25;6292740;22;19941;-78
2022/04/13 00:22:20;;;;;;;;;;;;;;;18.34;50.93;101250.81;6264894;22;19911;-78
2022/04/13 00:24:45;;;;;;;;;;;;;;;18.34;50.87;101254.25;6291574;22;20273;-78
2022/04/13 00:27:11;;;;;;;;;;;;;;;18.35;50.81;101255.13;6290114;22;19907;-78
2022/04/13 00:29:36;;;;;;;;;;;;;;;18.35;50.86;101252.53;6285448;22;19929;-78
2022/04/13 00:32:03;;;;;;;;;;;;;;;18.33;50.94;101257.72;6286155;22;19982;-78
2022/04/13 00:34:29;;;;;;;;;;;;;;;18.34;50.85;101253.41;6313385;22;19906;-78
2022/04/13 00:36:57;;;;;;;;;;;;;;;18.34;51.04;101254.25;6285461;22;19911;-78
2022/04/13 00:39:22;;;;;;;;;;;;;;;18.34;50.89;101254.25;6258271;22;19922;-78
2022/04/13 00:41:48;;;;;;;;;;;;;;;18.35;50.87;101257.72;6282912;22;20223;-78
2022/04/13 00:44:13;;;;;;;;;;;;;;;18.35;50.94;101255.13;6283013;22;19907;-78
2022/04/13 00:46:38;;;;;;;;;;;;;;;18.35;51.03;101260.34;6257653;22;19917;-78
2022/04/13 00:49:05;;;;;;;;;;;;;;;18.34;50.94;101253.41;6283019;22;19911;-78
2022/04/13 00:51:30;;;;;;;;;;;;;;;18.35;50.89;101263.81;6310636;22;20217;-78
2022/04/13 00:53:57;;;;;;;;;;;;;;;18.34;51.12;101263.84;6285215;22;19914;-78
2022/04/13 00:56:24;;;;;;;;;;;;;;;18.34;51.02;101267.28;6287088;22;19915;-78
2022/04/13 00:58:54;;;;;;;;;;;;;;;18.35;50.98;101273.38;6315598;22;19986;-78
2022/04/13 01:01:20;;;;;;;;;;;;;;;18.34;51.01;101271.66;6314121;22;19941;-78
2022/04/13 01:03:46;;;;;;;;;;;;;;;18.34;50.94;101271.66;6280684;22;19972;-78
2022/04/13 01:06:12;;;;;;;;;;;;;;;18.33;51.03;101268.16;6281952;22;19911;-78
2022/04/13 01:08:37;;;;;;;;;;;;;;;18.35;51.05;101274.22;6286987;22;19918;-78
2022/04/13 01:11:03;;;;;;;;;;;;;;;18.35;50.94;101281.19;6317477;22;19907;-78
2022/04/13 01:13:29;;;;;;;;;;;;;;;18.34;51.03;101279.47;6267362;22;19933;-79
2022/04/13 01:15:54;;;;;;;;;;;;;;;18.34;51.01;101285.53;6264545;22;20247;-78
2022/04/13 01:18:20;;;;;;;;;;;;;;;18.34;51.03;101279.47;6289922;22;19913;-78
2022/04/13 01:20:52;;;;;;;;;;;;;;;18.35;51.00;101286.38;6263444;22;19968;-78
2022/04/13 01:23:19;;;;;;;;;;;;;;;18.34;51.28;101280.31;6289798;22;19910;-79
2022/04/13 01:25:50;;;;;;;;;;;;;;;18.35;51.01;101281.19;6287365;22;20323;-78
2022/04/13 01:28:15;;;;;;;;;;;;;;;18.35;51.18;101281.19;6288721;22;19928;-78
2022/04/13 01:30:41;;;;;;;;;;;;;;;18.35;51.14;101291.59;6316710;22;19930;-78
2022/04/13 01:33:06;;;;;;;;;;;;;;;18.34;51.20;101285.53;6263184;22;19911;-78
2022/04/13 01:35:31;;;;;;;;;;;;;;;18.33;51.27;101291.59;6288577;22;20259;-78
2022/04/13 01:37:57;;;;;;;;;;;;;;;18.33;51.23;101289.00;6316200;22;19941;-78
2022/04/13 01:40:22;;;;;;;;;;;;;;;18.33;51.13;101294.22;6289250;22;19915;-78
2022/04/13 01:42:49;;;;;;;;;;;;;;;18.34;51.30;101297.69;6288367;22;19914;-78
2022/04/13 01:45:19;;;;;;;;;;;;;;;18.33;51.23;101296.81;6285732;22;19911;-78
2022/04/13 01:47:45;;;;;;;;;;;;;;;18.34;51.27;101295.09;6312821;22;19914;-78
2022/04/13 01:50:11;;;;;;;;;;;;;;;18.33;51.34;101289.00;6285303;22;19930;-78
2022/04/13 01:52:36;;;;;;;;;;;;;;;18.32;51.35;101289.88;6285908;22;19911;-78
2022/04/13 01:55:01;;;;;;;;;;;;;;;18.33;51.35;101299.41;6312669;22;19991;-78
2022/04/13 01:57:26;;;;;;;;;;;;;;;18.33;51.34;101294.22;6285237;22;19984;-78
2022/04/13 01:59:52;;;;;;;;;;;;;;;18.34;51.22;101300.31;6260812;22;19919;-78
2022/04/13 02:02:17;;;;;;;;;;;;;;;18.33;51.40;101302.03;6290683;22;19969;-78
2022/04/13 02:04:43;;;;;;;;;;;;;;;18.33;51.40;101304.63;6317343;22;19915;-77
2022/04/13 02:07:08;;;;;;;;;;;;;;;18.33;51.40;101302.03;6318999;22;19990;-78
2022/04/13 02:09:33;;;;;;;;;;;;;;;18.33;51.57;101307.22;6291912;22;20032;-78
2022/04/13 02:11:59;;;;;;;;;;;;;;;18.34;51.40;101315.94;6265406;22;20342;-78
2022/04/13 02:14:24;;;;;;;;;;;;;;;18.33;51.36;101317.66;6291902;22;19914;-78
2022/04/13 02:16:49;;;;;;;;;;;;;;;18.33;51.38;101302.03;6265448;22;19911;-78
2022/04/13 02:19:15;;;;;;;;;;;;;;;18.33;51.40;101306.38;6318638;22;19907;-77
2022/04/13 02:21:40;;;;;;;;;;;;;;;18.32;51.52;101312.47;6265844;22;19936;-78
2022/04/13 02:24:07;;;;;;;;;;;;;;;18.32;51.33;101310.72;6318841;22;19907;-78
2022/04/13 02:26:32;;;;;;;;;;;;;;;18.32;51.42;101302.91;6290974;22;19931;-78
2022/04/13 02:28:58;;;;;;;;;;;;;;;18.32;51.37;101304.66;6288507;22;19918;-78
2022/04/13 02:31:23;;;;;;;;;;;;;;;18.31;51.43;101301.16;6315109;22;19907;-78
2022/04/13 02:33:53;;;;;;;;;;;;;;;18.30;51.39;101305.50;6264587;22;19911;-78
2022/04/13 02:36:18;;;;;;;;;;;;;;;18.31;51.45;101306.38;6290504;22;20240;-78
2022/04/13 02:38:43;;;;;;;;;;;;;;;18.30;51.38;101308.13;6260810;22;19911;-78
2022/04/13 02:41:08;;;;;;;;;;;;;;;18.30;51.32;101313.34;6314640;22;19911;-78
2022/04/13 02:43:34;;;;;;;;;;;;;;;18.30;51.37;101313.34;6260623;22;19918;-77
2022/04/13 02:45:59;;;;;;;;;;;;;;;18.30;51.43;101315.06;6286167;22;19910;-78
2022/04/13 02:48:24;;;;;;;;;;;;;;;18.30;51.42;101315.06;6313901;22;19926;-78
2022/04/13 02:50:50;;;;;;;;;;;;;;;18.30;51.51;101322.91;6286455;22;19907;-77
2022/04/13 02:53:15;;;;;;;;;;;;;;;18.30;51.38;101322.91;6286908;22;19937;-78
2022/04/13 02:55:41;;;;;;;;;;;;;;;18.29;51.43;101322.03;6289426;22;19907;-78
2022/04/13 02:58:06;;;;;;;;;;;;;;;18.29;51.47;101324.63;6317539;22;19961;-78
2022/04/13 03:00:31;;;;;;;;;;;;;;;18.30;51.43;101328.09;6289760;22;19918;-78
2022/04/13 03:02:56;;;;;;;;;;;;;;;18.30;51.37;101328.09;6264890;22;19960;-78
2022/04/13 03:05:22;;;;;;;;;;;;;;;18.28;51.42;101338.53;6319216;22;19911;-77
2022/04/13 03:07:47;;;;;;;;;;;;;;;18.28;51.63;101341.13;6267097;22;19911;-78
2022/04/13 03:10:18;;;;;;;;;;;;;;;18.29;51.44;101337.66;6267831;22;19937;-78
2022/04/13 03:12:43;;;;;;;;;;;;;;;18.29;51.31;101334.16;6320579;22;19914;-79
2022/04/13 03:15:09;;;;;;;;;;;;;;;18.28;51.62;101324.63;6292548;22;19907;-80
2022/04/13 03:17:35;;;;;;;;;;;;;;;18.27;51.46;101329.00;6317338;22;20278;-78
2022/04/13 03:20:00;;;;;;;;;;;;;;;18.26;51.47;101322.03;6286234;22;19922;-78
2022/04/13 03:22:25;;;;;;;;;;;;;;;18.26;51.51;101329.84;6264512;22;19911;-79
2022/04/13 03:24:51;;;;;;;;;;;;;;;18.27;51.47;101341.16;6293464;22;19911;-78
2022/04/13 03:27:16;;;;;;;;;;;;;;;18.27;51.48;101338.56;6321596;22;20300;-78
2022/04/13 03:29:42;;;;;;;;;;;;;;;18.28;51.44;101355.91;6291218;22;19915;-78
2022/04/13 03:32:07;;;;;;;;;;;;;;;18.27;51.47;101352.44;6291578;22;19903;-78
2022/04/13 03:34:32;;;;;;;;;;;;;;;18.26;51.67;101352.44;6322015;22;20362;-77
2022/04/13 03:36:58;;;;;;;;;;;;;;;18.27;51.63;101362.00;6269974;22;19911;-78
2022/04/13 03:39:23;;;;;;;;;;;;;;;18.27;51.49;101360.25;6293999;22;19907;-78
2022/04/13 03:41:48;;;;;;;;;;;;;;;18.26;51.50;101355.91;6265809;22;19918;-78
2022/04/13 03:44:14;;;;;;;;;;;;;;;18.27;51.47;101359.41;6286922;22;20320;-78
2022/04/13 03:46:39;;;;;;;;;;;;;;;18.27;51.47;101367.22;6285218;22;20099;-78
2022/04/13 03:49:05;;;;;;;;;;;;;;;18.25;51.50;101372.41;6312815;22;19907;-78
2022/04/13 03:51:30;;;;;;;;;;;;;;;18.26;51.58;101374.13;6287787;22;19930;-78
2022/04/13 03:53:56;;;;;;;;;;;;;;;18.26;51.65;101366.31;6316956;22;19911;-78
2022/04/13 03:56:21;;;;;;;;;;;;;;;18.25;51.67;101364.59;6294428;22;19926;-78
2022/04/13 03:58:46;;;;;;;;;;;;;;;18.26;51.70;101374.13;6263502;22;19953;-78
2022/04/13 04:01:11;;;;;;;;;;;;;;;18.26;51.47;101374.13;6286959;22;20252;-77
2022/04/13 04:03:37;;;;;;;;;;;;;;;18.26;51.59;101374.13;6291780;22;19965;-78
2022/04/13 04:06:03;;;;;;;;;;;;;;;18.27;51.55;101383.69;6318448;22;20243;-78
2022/04/13 04:08:29;;;;;;;;;;;;;;;18.25;51.59;101380.22;6318108;22;19910;-77
2022/04/13 04:10:54;;;;;;;;;;;;;;;18.24;51.76;101377.63;6318559;22;19907;-78
2022/04/13 04:13:20;;;;;;;;;;;;;;;18.24;51.73;101378.47;6317548;22;19946;-78
2022/04/13 04:15:45;;;;;;;;;;;;;;;18.24;51.68;101383.69;6290214;22;19914;-78
2022/04/13 04:18:10;;;;;;;;;;;;;;;18.25;51.74;101381.97;6289662;22;19918;-78
2022/04/13 04:20:36;;;;;;;;;;;;;;;18.25;51.62;101384.59;6289915;22;19910;-78
2022/04/13 04:23:01;;;;;;;;;;;;;;;18.25;51.87;101389.78;6290125;22;19906;-78
2022/04/13 04:25:26;;;;;;;;;;;;;;;18.25;51.75;101395.00;6288067;22;19918;-78
2022/04/13 04:27:51;;;;;;;;;;;;;;;18.23;51.66;101400.22;6263333;22;19915;-78
2022/04/13 04:30:17;;;;;;;;;;;;;;;18.24;51.65;101407.13;6288294;22;19918;-78
2022/04/13 04:32:42;;;;;;;;;;;;;;;18.24;51.62;101407.13;6288940;22;19911;-77
2022/04/13 04:35:08;;;;;;;;;;;;;;;18.24;51.53;101408.88;6287181;22;19985;-78
2022/04/13 04:37:33;;;;;;;;;;;;;;;18.23;51.65;101413.25;6258610;22;19984;-78
2022/04/13 04:39:59;;;;;;;;;;;;;;;18.24;51.66;101417.56;6282945;22;20267;-78
2022/04/13 04:42:27;;;;;;;;;;;;;;;18.24;51.73;101424.50;6282338;22;19907;-80
2022/04/13 04:44:58;;;;;;;;;;;;;;;18.25;51.66;101441.91;6259030;22;20311;-79
2022/04/13 04:47:24;;;;;;;;;;;;;;;18.22;51.64;101432.31;6263229;22;19910;-81
2022/04/13 04:49:50;;;;;;;;;;;;;;;18.24;51.75;101433.19;6314395;22;20327;-77
2022/04/13 04:52:15;;;;;;;;;;;;;;;18.24;51.68;101437.53;6293102;22;19914;-80
2022/04/13 04:54:41;;;;;;;;;;;;;;;18.24;51.58;101442.75;6292138;22;19933;-79
2022/04/13 04:57:08;;;;;;;;;;;;;;;18.23;51.58;101443.63;6313967;22;19918;-78
2022/04/13 04:59:33;;;;;;;;;;;;;;;18.22;51.82;101447.97;6287463;22;19910;-78
2022/04/13 05:01:59;;;;;;;;;;;;;;;18.23;51.50;101444.50;6293061;22;19956;-79
2022/04/13 05:04:25;;;;;;;;;;;;;;;18.24;51.54;101441.00;6300490;22;19899;-80
2022/04/13 05:06:58;;;;;;;;;;;;;;;18.23;51.50;101448.84;6303647;22;19921;-82
2022/04/13 05:09:25;;;;;;;;;;;;;;;18.23;51.65;101438.44;6287651;22;19961;-81
2022/04/13 05:12:09;;;;;;;;;;;;;;;18.23;51.54;101447.09;6308606;22;19897;-82
2022/04/13 05:15:04;;;;;;;;;;;;;;;18.23;51.51;101454.91;6329628;22;19935;-81
2022/04/13 05:17:31;;;;;;;;;;;;;;;18.24;51.64;101456.63;6325578;22;19891;-80
2022/04/13 05:19:56;;;;;;;;;;;;;;;18.24;51.59;101456.63;6270465;22;19915;-82
2022/04/13 05:22:45;;;;;;;;;;;;;;;18.29;51.61;101460.13;6298885;22;19953;-81
2022/04/13 05:25:12;;;;;;;;;;;;;;;18.35;51.42;101469.63;6326968;22;19914;-80
2022/04/13 05:27:38;;;;;;;;;;;;;;;18.36;51.63;101479.22;6316546;22;19907;-80
2022/04/13 05:30:04;;;;;;;;;;;;;;;18.36;51.43;101476.59;6292102;22;19913;-80
2022/04/13 05:32:29;;;;;;;;;;;;;;;18.36;51.70;101479.22;6291770;22;19906;-79
2022/04/13 05:34:59;;;;;;;;;;;;;;;18.37;51.50;101475.72;6265379;22;20056;-79
2022/04/13 05:37:24;;;;;;;;;;;;;;;18.37;51.43;101482.69;6289973;22;19907;-80
2022/04/13 05:40:08;;;;;;;;;;;;;;;18.37;51.58;101490.50;6292054;22;20284;-80
2022/04/13 05:42:34;;;;;;;;;;;;;;;18.37;51.43;101493.09;6319040;22;19915;-80
2022/04/13 05:45:00;;;;;;;;;;;;;;;18.36;51.62;101492.25;6305873;22;19954;-78
2022/04/13 05:47:28;;;;;;;;;;;;;;;18.36;51.46;101499.19;6317602;22;19960;-79
2022/04/13 05:49:53;;;;;;;;;;;;;;;18.35;51.39;101492.22;6288901;22;19917;-79
2022/04/13 05:52:19;;;;;;;;;;;;;;;18.37;51.33;101498.31;6297496;22;19931;-81
2022/04/13 05:54:45;;;;;;;;;;;;;;;18.38;51.48;101490.50;6295152;22;19907;-81
2022/04/13 05:57:10;;;;;;;;;;;;;;;18.39;51.40;101505.25;6291056;22;19911;-80
2022/04/13 05:59:36;;;;;;;;;;;;;;;18.38;51.39;101506.13;6292969;22;19939;-81
2022/04/13 06:02:02;;;;;;;;;;;;;;;18.40;51.34;101512.22;6317466;22;20316;-81
2022/04/13 06:04:27;;;;;;;;;;;;;;;18.43;51.06;101514.78;6289493;22;19914;-80
2022/04/13 06:07:02;;;;;;;;;;;;;;;18.45;50.81;101512.19;6293629;22;19953;-81
2022/04/13 06:09:51;;;;;;;;;;;;;;;18.46;50.64;101517.38;6277067;22;19907;-81
2022/04/13 06:40:45;;;;;;;;;;;;;;;18.43;49.84;101563.44;6239766;22;19919;-81
2022/04/13 08:56:29;;;;;;;;;;;;;;;18.78;50.23;101695.53;6297866;22;19927;-82
2022/04/13 08:59:55;;;;;;;;;;;;;;;18.80;50.29;101701.59;6279005;22;19937;-82
2022/04/13 09:02:50;;;;;;;;;;;;;;;18.79;50.29;101703.34;6147210;23;19924;-81
2022/04/13 09:09:10;;;;;;;;;;;;;;;18.80;50.32;101712.91;6177007;23;19915;-81
2022/04/13 09:21:05;;;;;;;;;;;;;;;18.80;50.20;101714.66;6178645;23;19964;-82
2022/04/13 09:36:10;;;;;;;;;;;;;;;18.79;50.39;101732.03;6135875;23;19977;-82
2022/04/13 09:38:42;;;;;;;;;;;;;;;18.78;50.46;101739.84;6205236;23;19956;-81
2022/04/13 09:41:19;;;;;;;;;;;;;;;18.78;50.25;101738.09;6284063;22;19911;-82
2022/04/13 09:43:58;;;;;;;;;;;;;;;18.79;50.43;101744.19;6329655;22;19906;-81
2022/04/13 09:47:06;;;;;;;;;;;;;;;18.80;50.40;101754.63;6328974;22;19914;-81
2022/04/13 09:49:56;;;;;;;;;;;;;;;18.80;50.36;101751.16;6332487;22;19911;-81
2022/04/13 09:52:40;;;;;;;;;;;;;;;18.80;50.36;101753.75;6300916;22;19928;-81
2022/04/13 09:55:08;;;;;;;;;;;;;;;18.79;50.23;101763.31;6330988;22;19907;-81
2022/04/13 13:45:59;;;;;;;;;;;;;;;19.02;50.34;101878.09;6281403;22;19923;-84
2022/04/13 14:16:47;;;;;;;;;;;;;;;19.08;50.34;101872.88;6293911;22;19903;-83
2022/04/13 14:19:34;;;;;;;;;;;;;;;19.09;50.29;101873.72;6337888;22;19935;-84
2022/04/13 16:41:30;;;;;;;;;;;;;;;19.09;50.56;101908.50;6229779;22;19919;31
2022/04/13 16:43:55;;;;;;;;;;;;;;;19.10;50.55;101910.28;6215772;22;19967;-79
2022/04/13 16:46:21;;;;;;;;;;;;;;;19.09;50.59;101911.13;6223849;22;19927;-78
2022/04/13 16:48:49;;;;;;;;;;;;;;;19.09;50.60;101905.91;6285585;22;19946;-80
2022/04/13 16:51:14;;;;;;;;;;;;;;;19.11;50.55;101908.53;6258579;22;20236;-79
2022/04/13 16:53:40;;;;;;;;;;;;;;;19.10;50.54;101912.88;6283044;22;19907;-79
2022/04/13 16:56:05;;;;;;;;;;;;;;;19.10;50.47;101912.03;6254446;22;19919;-80
2022/04/13 16:58:30;;;;;;;;;;;;;;;19.10;50.56;101906.81;6285168;22;20339;-78
2022/04/13 17:00:56;;;;;;;;;;;;;;;19.09;50.58;101915.47;6231950;22;19919;-78
2022/04/13 17:03:21;;;;;;;;;;;;;;;19.08;50.65;101911.16;6256740;22;19907;-79
2022/04/13 17:05:47;;;;;;;;;;;;;;;19.08;50.63;101909.41;6282517;22;20320;-78
2022/04/13 17:08:12;;;;;;;;;;;;;;;19.07;50.73;101910.25;6231894;22;19933;-77
2022/04/13 17:10:38;;;;;;;;;;;;;;;19.07;50.55;101910.25;6283683;22;19947;-78
2022/04/13 17:13:04;;;;;;;;;;;;;;;19.07;50.68;101912.84;6255154;22;19954;-78
2022/04/13 17:15:29;;;;;;;;;;;;;;;19.07;50.60;101915.47;6254724;22;19954;-78
2022/04/13 17:17:54;;;;;;;;;;;;;;;19.07;50.83;101925.03;6282258;22;20015;-79
2022/04/13 17:20:20;;;;;;;;;;;;;;;19.06;50.71;101932.00;6229298;22;19915;-79
2022/04/13 17:22:46;;;;;;;;;;;;;;;19.06;50.81;101929.41;6282491;22;19991;-78
2022/04/13 17:25:11;;;;;;;;;;;;;;;19.05;50.81;101932.88;6230122;22;19912;-78
2022/04/13 17:27:36;;;;;;;;;;;;;;;19.06;50.91;101938.97;6230095;22;19911;-79
2022/04/13 17:32:37;;;;;;;;;;;;;;;19.06;50.74;101938.97;6290792;22;20228;-78
2022/04/13 17:35:02;;;;;;;;;;;;;;;19.04;51.16;101945.91;6294326;22;19958;-78
2022/04/13 17:37:28;;;;;;;;;;;;;;;19.03;50.88;101937.22;6300209;22;20350;-78
2022/04/13 17:39:53;;;;;;;;;;;;;;;19.04;51.01;101948.53;6325467;22;19906;-78
2022/04/13 17:42:19;;;;;;;;;;;;;;;19.03;51.07;101949.38;6298912;22;19938;-78
2022/04/13 17:44:44;;;;;;;;;;;;;;;19.03;50.90;101950.28;6295975;22;19911;-78
2022/04/13 17:47:10;;;;;;;;;;;;;;;19.02;51.06;101958.09;6291366;22;19910;-78
2022/04/13 17:49:36;;;;;;;;;;;;;;;19.02;50.91;101947.66;6291302;22;19979;-78
2022/04/13 17:52:02;;;;;;;;;;;;;;;19.01;50.98;101949.41;6290700;22;19915;-78
2022/04/13 17:54:27;;;;;;;;;;;;;;;19.02;51.00;101958.09;6345395;22;20239;-78
2022/04/13 17:56:52;;;;;;;;;;;;;;;19.00;50.88;101960.69;6291247;22;19957;-77
2022/04/13 17:59:22;;;;;;;;;;;;;;;19.01;50.95;101953.72;6291350;22;19937;-78
2022/04/13 18:01:51;;;;;;;;;;;;;;;19.01;50.97;101962.44;6319403;22;19915;-78
2022/04/13 18:04:17;;;;;;;;;;;;;;;19.01;51.06;101961.53;6317201;22;19981;-78
2022/04/13 18:06:42;;;;;;;;;;;;;;;19.01;51.05;101962.44;6317003;22;20239;-78
2022/04/13 18:09:08;;;;;;;;;;;;;;;19.00;51.01;101955.47;6316443;22;20388;-78
2022/04/13 18:11:33;;;;;;;;;;;;;;;19.00;51.15;101952.00;6315971;22;20308;-78
2022/04/13 18:13:58;;;;;;;;;;;;;;;19.00;51.14;101955.47;6290925;22;19914;-78
2022/04/13 18:16:24;;;;;;;;;;;;;;;18.98;51.03;101957.19;6316116;22;19932;-78
2022/04/13 18:18:49;;;;;;;;;;;;;;;18.99;51.17;101953.75;6289870;22;19910;-78
2022/04/13 18:21:15;;;;;;;;;;;;;;;18.99;51.01;101952.84;6315732;22;19915;-78
2022/04/13 18:23:40;;;;;;;;;;;;;;;18.98;51.15;101961.56;6288995;22;19942;-78
2022/04/13 18:26:05;;;;;;;;;;;;;;;18.97;51.04;101954.59;6315296;22;20322;-78
2022/04/13 18:28:31;;;;;;;;;;;;;;;18.96;51.08;101958.94;6289007;22;19918;-78
2022/04/13 18:30:56;;;;;;;;;;;;;;;18.96;51.17;101958.06;6283373;22;19964;-78
2022/04/13 18:33:21;;;;;;;;;;;;;;;18.96;51.05;101958.06;6257742;22;19921;-78
2022/04/13 18:35:47;;;;;;;;;;;;;;;18.95;51.25;101962.41;6260134;22;19915;-78
2022/04/13 18:38:12;;;;;;;;;;;;;;;18.95;51.16;101972.84;6284330;22;19906;-78
2022/04/13 18:40:37;;;;;;;;;;;;;;;18.95;51.32;101969.38;6257775;22;19915;-79
2022/04/13 18:43:02;;;;;;;;;;;;;;;18.95;51.08;101974.59;6284007;22;19941;-78
2022/04/13 18:45:28;;;;;;;;;;;;;;;18.96;51.18;101981.53;6283238;22;20280;-78
2022/04/13 18:47:53;;;;;;;;;;;;;;;18.95;51.31;101972.84;6257547;22;19986;-78
2022/04/13 18:50:19;;;;;;;;;;;;;;;18.96;52.18;101977.19;6257658;22;19911;-78
2022/04/13 18:52:44;;;;;;;;;;;;;;;18.97;52.27;101983.31;6257608;22;19994;-78
2022/04/13 18:55:10;;;;;;;;;;;;;;;18.97;53.15;101989.38;6285533;22;19907;-80
2022/04/13 18:57:35;;;;;;;;;;;;;;;18.99;52.75;101997.19;6258369;22;19918;-78
2022/04/13 19:00:01;;;;;;;;;;;;;;;18.99;52.92;102002.41;6283741;22;20010;-78
2022/04/13 19:02:26;;;;;;;;;;;;;;;18.97;52.92;101999.81;6284366;22;19911;-78
2022/04/13 19:04:52;;;;;;;;;;;;;;;18.98;52.79;101996.31;6259230;22;19911;-79
2022/04/13 19:07:18;;;;;;;;;;;;;;;18.97;52.57;102002.44;6263276;22;19917;-79
2022/04/13 19:09:43;;;;;;;;;;;;;;;18.98;52.33;102009.38;6289075;22;19911;-80
2022/04/13 19:12:09;;;;;;;;;;;;;;;18.98;52.40;102018.94;6287727;22;19942;-79
2022/04/13 19:14:34;;;;;;;;;;;;;;;18.96;52.23;102018.94;6283951;22;20235;-79
2022/04/13 19:16:59;;;;;;;;;;;;;;;18.97;52.21;102025.91;6283254;22;20236;-79
2022/04/13 19:19:27;;;;;;;;;;;;;;;18.96;52.25;102020.66;6283238;22;20240;-79
2022/04/13 19:21:53;;;;;;;;;;;;;;;18.95;52.05;102022.41;6257689;22;19915;-79
2022/04/13 19:24:19;;;;;;;;;;;;;;;18.94;52.21;102027.63;6282739;22;19913;-79
2022/04/13 19:26:45;;;;;;;;;;;;;;;18.95;52.19;102035.47;6308636;22;19907;-79
2022/04/13 19:29:10;;;;;;;;;;;;;;;18.94;52.14;102025.00;6282408;22;20247;-78
2022/04/13 19:31:36;;;;;;;;;;;;;;;18.94;52.10;102028.47;6282588;22;19906;-79
2022/04/13 19:34:02;;;;;;;;;;;;;;;18.94;52.08;102038.91;6257381;22;20224;-79
2022/04/13 19:36:29;;;;;;;;;;;;;;;18.93;52.27;102037.19;6257999;22;19911;-79
2022/04/13 19:38:55;;;;;;;;;;;;;;;18.93;52.08;102038.94;6283968;22;19911;-79
2022/04/13 19:41:21;;;;;;;;;;;;;;;18.92;52.21;102038.03;6283219;22;19911;-79
2022/04/13 19:43:46;;;;;;;;;;;;;;;18.91;52.13;102042.38;6285055;22;19907;-79
2022/04/13 19:46:11;;;;;;;;;;;;;;;18.92;52.03;102048.47;6283138;22;19943;-79
2022/04/13 19:48:39;;;;;;;;;;;;;;;18.92;52.21;102045.84;6282737;22;19911;-79
2022/04/13 19:51:04;;;;;;;;;;;;;;;18.91;52.14;102052.81;6310141;22;19959;-79
2022/04/13 19:53:38;;;;;;;;;;;;;;;18.91;52.08;102052.81;5174858;27;19919;-79
2022/04/13 19:56:04;;;;;;;;;;;;;;;18.90;52.07;102055.41;5158260;27;19964;-79
2022/04/13 19:58:29;;;;;;;;;;;;;;;18.90;52.17;102063.25;5140633;27;19915;-79
2022/04/13 20:00:55;;;;;;;;;;;;;;;18.90;52.06;102064.13;5139539;27;20014;-78
2022/04/13 20:03:20;;;;;;;;;;;;;;;18.90;52.20;102068.47;5158518;27;20013;-81
2022/04/13 20:05:45;;;;;;;;;;;;;;;18.89;51.99;102078.03;5156785;27;19911;-78
2022/04/13 20:08:11;;;;;;;;;;;;;;;18.90;52.12;102076.28;5138865;27;19922;-81
2022/04/13 20:10:36;;;;;;;;;;;;;;;18.89;52.12;102071.94;5138598;27;19914;-78
2022/04/13 20:13:02;;;;;;;;;;;;;;;18.89;52.04;102078.03;5157730;27;19950;-81
2022/04/13 20:15:29;;;;;;;;;;;;;;;18.88;52.09;102078.91;5156788;27;19911;-79
2022/04/13 20:18:01;;;;;;;;;;;;;;;18.88;52.00;102071.06;5156204;27;19911;-80
2022/04/13 20:20:27;;;;;;;;;;;;;;;18.87;52.02;102079.75;5156920;27;19911;-78
2022/04/13 20:22:53;;;;;;;;;;;;;;;18.87;51.99;102069.31;5167970;27;19959;-79
2022/04/13 20:25:18;;;;;;;;;;;;;;;18.88;52.06;102067.59;5150278;27;19919;-79
2022/04/13 20:27:45;;;;;;;;;;;;;;;18.87;51.92;102073.66;5156228;27;19915;-80
2022/04/13 20:30:11;;;;;;;;;;;;;;;18.87;51.99;102069.31;5175560;27;19922;-82
2022/04/13 20:32:36;;;;;;;;;;;;;;;18.87;52.02;102071.94;5154556;27;20018;-81
2022/04/13 20:35:02;;;;;;;;;;;;;;;18.88;52.09;102072.81;5150484;27;19936;-82
2022/04/13 20:37:27;;;;;;;;;;;;;;;18.89;52.08;102078.03;5155631;27;20300;-82
2022/04/13 20:39:52;;;;;;;;;;;;;;;18.88;52.07;102085.88;5158540;27;19922;-82
2022/04/13 20:42:17;;;;;;;;;;;;;;;18.87;52.14;102087.56;5173677;27;19911;-81
2022/04/13 20:44:44;;;;;;;;;;;;;;;18.87;52.19;102082.34;5147077;27;19915;-79
2022/04/13 20:47:10;;;;;;;;;;;;;;;18.88;52.20;102089.34;5179113;27;19910;-78
2022/04/13 20:49:35;;;;;;;;;;;;;;;18.88;52.17;102098.91;5158953;27;20338;-79
2022/04/13 20:52:00;;;;;;;;;;;;;;;18.89;52.10;102087.59;5141747;27;19990;-79
2022/04/13 20:54:26;;;;;;;;;;;;;;;18.88;52.25;102078.03;5161001;27;20391;-79
2022/04/13 20:56:52;;;;;;;;;;;;;;;18.88;52.18;102091.09;5142010;27;19915;-79
2022/04/13 20:59:18;;;;;;;;;;;;;;;18.88;52.37;102088.47;5158501;27;20369;-79
2022/04/13 21:01:43;;;;;;;;;;;;;;;18.87;52.23;102090.19;5158734;27;19968;-79
2022/04/13 21:04:08;;;;;;;;;;;;;;;18.89;52.39;102092.81;5134037;27;19919;-80
2022/04/13 21:06:34;;;;;;;;;;;;;;;18.88;52.28;102085.88;5128150;27;19938;-80
2022/04/13 21:09:01;;;;;;;;;;;;;;;18.87;52.32;102082.34;5127796;27;19926;-81
2022/04/13 21:11:47;;;;;;;;;;;;;;;18.88;52.34;102084.13;5154178;27;19973;-77
2022/04/13 21:14:12;;;;;;;;;;;;;;;18.91;52.37;102091.09;5144941;27;20416;-80
2022/04/13 21:16:39;;;;;;;;;;;;;;;18.92;52.35;102079.78;5162676;27;19915;-80
2022/04/13 21:19:04;;;;;;;;;;;;;;;18.94;52.55;102082.41;5144110;27;19915;-80
2022/04/13 21:21:30;;;;;;;;;;;;;;;18.94;52.44;102083.25;5143790;27;19938;-80
2022/04/13 21:23:55;;;;;;;;;;;;;;;18.95;52.70;102081.53;5127081;27;19922;-80
2022/04/13 21:26:21;;;;;;;;;;;;;;;18.97;52.94;102085.03;5143383;27;19967;-78
2022/04/13 21:28:48;;;;;;;;;;;;;;;18.97;53.32;102090.25;5141908;27;19918;-78
2022/04/13 21:31:13;;;;;;;;;;;;;;;18.97;53.97;102085.91;5142114;27;19918;-78
2022/04/13 21:33:38;;;;;;;;;;;;;;;18.96;54.18;102083.28;5161358;27;20013;-78
2022/04/13 21:36:04;;;;;;;;;;;;;;;18.96;53.99;102088.50;5125617;27;20292;-79
2022/04/13 21:38:29;;;;;;;;;;;;;;;18.95;53.80;102082.41;5141891;27;19918;-79
2022/04/13 21:40:55;;;;;;;;;;;;;;;18.94;53.60;102085.88;5124076;27;19923;-79
2022/04/13 21:43:20;;;;;;;;;;;;;;;18.95;53.38;102090.25;5123567;27;19915;-79
2022/04/13 21:45:45;;;;;;;;;;;;;;;18.94;53.34;102101.53;5141999;27;20047;-79
2022/04/13 21:48:11;;;;;;;;;;;;;;;18.95;53.18;102094.59;5159217;27;19918;-80
2022/04/13 21:50:36;;;;;;;;;;;;;;;18.94;53.08;102085.00;5139983;27;20280;-78
2022/04/13 21:53:01;;;;;;;;;;;;;;;18.92;52.94;102098.03;5140277;27;19919;-78
2022/04/13 21:55:28;;;;;;;;;;;;;;;18.92;52.97;102100.63;5141656;27;19912;-78
2022/04/13 21:57:56;;;;;;;;;;;;;;;18.91;52.72;102099.78;5142493;27;19911;-79
2022/04/13 22:00:53;;;;;;;;;;;;;;;18.90;52.99;102100.66;5141902;27;19963;-79
2022/04/13 22:03:20;;;;;;;;;;;;;;;18.89;52.86;102103.25;5096236;27;19922;-79
2022/04/13 22:05:45;;;;;;;;;;;;;;;18.89;52.68;102103.25;5140596;27;19911;-79
2022/04/13 22:08:10;;;;;;;;;;;;;;;18.89;52.70;102104.09;5123509;27;19915;-79
2022/04/13 22:10:39;;;;;;;;;;;;;;;18.89;52.53;102105.84;5140474;27;19951;-79
2022/04/13 22:13:04;;;;;;;;;;;;;;;18.87;52.67;102100.63;5123342;27;19968;-79
2022/04/13 22:15:30;;;;;;;;;;;;;;;18.87;52.69;102107.56;5139995;27;19911;-80
2022/04/13 22:17:55;;;;;;;;;;;;;;;18.86;52.56;102111.94;5143941;27;19911;-79
2022/04/13 22:20:21;;;;;;;;;;;;;;;18.87;52.46;102110.19;5162889;27;19934;-79